Time;durP1;ratioP1;P1;durP2;ratioP2;P2;SDS_P1;SDS_P2;PMS_P1;PMS_P2;Temp;Humidity;BMP_temperature;BMP_pressure;BME280_temperature;BME280_humidity;BME280_pressure;Samples;Min_cycle;Max_cycle;Signal;HPM_P1;HPM_P2
2021/03/30 00:01:25;;;;;;;7.93;2.30;;;12.00;99.90;;;;;;5002263;28;20043;-66
2021/03/30 00:03:51;;;;;;;2.95;2.33;;;12.10;99.90;;;;;;5008174;28;20088;-66
2021/03/30 00:06:17;;;;;;;3.88;2.45;;;11.90;99.90;;;;;;4999935;28;20392;-66
2021/03/30 00:08:43;;;;;;;5.68;2.22;;;11.90;99.90;;;;;;4997074;28;20022;-66
2021/03/30 00:11:09;;;;;;;3.47;2.33;;;12.20;99.90;;;;;;5021129;28;20426;-66
2021/03/30 00:13:35;;;;;;;2.88;2.25;;;12.00;99.90;;;;;;5030948;28;20029;-66
2021/03/30 00:16:01;;;;;;;7.82;2.17;;;11.90;99.90;;;;;;5011989;28;20022;-66
2021/03/30 00:18:27;;;;;;;4.80;2.05;;;12.10;99.90;;;;;;5017487;28;20024;-66
2021/03/30 00:20:53;;;;;;;4.75;2.55;;;12.00;99.90;;;;;;5011632;28;20518;-66
2021/03/30 00:23:18;;;;;;;4.10;2.45;;;11.90;99.90;;;;;;5014348;28;20041;-66
2021/03/30 00:25:44;;;;;;;6.97;2.22;;;12.00;99.90;;;;;;5017398;28;20066;-66
2021/03/30 00:28:10;;;;;;;3.72;2.10;;;12.00;99.90;;;;;;5005645;28;20029;-66
2021/03/30 00:30:36;;;;;;;3.80;2.42;;;12.10;99.90;;;;;;5018324;28;20026;-65
2021/03/30 00:33:01;;;;;;;4.47;2.25;;;11.90;99.90;;;;;;5014559;28;20112;-65
2021/03/30 00:35:27;;;;;;;5.70;2.47;;;11.90;99.90;;;;;;5022753;28;20035;-65
2021/03/30 00:37:53;;;;;;;6.10;2.58;;;11.80;99.90;;;;;;5019191;28;20071;-65
2021/03/30 00:40:18;;;;;;;4.43;2.30;;;11.90;99.90;;;;;;5021676;28;20088;-66
2021/03/30 00:42:44;;;;;;;8.27;2.50;;;11.80;99.90;;;;;;5017556;28;20037;-66
2021/03/30 00:45:12;;;;;;;5.93;2.72;;;11.90;99.90;;;;;;5021053;28;20034;-66
2021/03/30 00:47:42;;;;;;;4.63;2.25;;;11.90;99.90;;;;;;5013055;28;20531;-66
2021/03/30 00:50:11;;;;;;;4.20;2.35;;;11.80;99.90;;;;;;5021418;28;20024;-66
2021/03/30 00:52:38;;;;;;;5.30;2.38;;;11.90;99.90;;;;;;5015703;28;20075;-66
2021/03/30 00:55:05;;;;;;;3.92;2.30;;;11.90;99.90;;;;;;5022666;28;20419;-66
2021/03/30 00:57:31;;;;;;;3.95;2.13;;;11.90;99.90;;;;;;5018132;28;20026;-66
2021/03/30 00:59:57;;;;;;;3.63;2.97;;;11.90;99.90;;;;;;5011790;28;20080;-66
2021/03/30 01:02:23;;;;;;;5.75;2.53;;;11.80;99.90;;;;;;5017319;28;20587;-66
2021/03/30 01:04:49;;;;;;;5.60;2.78;;;11.70;99.90;;;;;;5025113;28;20081;-66
2021/03/30 01:07:14;;;;;;;4.55;2.75;;;11.80;99.90;;;;;;5002957;28;20082;-65
2021/03/30 01:10:01;;;;;;;7.03;2.47;;;11.60;99.90;;;;;;5018810;28;20022;-66
2021/03/30 01:12:42;;;;;;;5.85;2.22;;;11.70;99.90;;;;;;5013226;28;20076;-66
2021/03/30 01:15:26;;;;;;;8.30;2.60;;;11.80;99.90;;;;;;5009783;28;20231;-66
2021/03/30 01:18:01;;;;;;;4.60;2.33;;;11.70;99.90;;;;;;5017625;28;20029;-66
2021/03/30 01:20:48;;;;;;;6.18;2.80;;;11.90;99.90;;;;;;5015610;28;20031;-66
2021/03/30 01:23:33;;;;;;;6.25;2.25;;;11.80;99.90;;;;;;5017964;28;20422;-66
2021/03/30 01:26:22;;;;;;;8.00;2.80;;;11.80;99.90;;;;;;5010599;28;20490;-66
2021/03/30 01:29:00;;;;;;;8.73;3.03;;;11.90;99.90;;;;;;5015515;28;20030;-66
2021/03/30 01:31:29;;;;;;;8.95;2.75;;;11.80;99.90;;;;;;5005654;28;20025;-66
2021/03/30 01:33:58;;;;;;;3.80;2.35;;;11.90;99.90;;;;;;5019181;28;20030;-66
2021/03/30 01:36:27;;;;;;;5.15;2.08;;;11.90;99.90;;;;;;5008718;28;20379;-66
2021/03/30 01:38:53;;;;;;;4.30;2.30;;;11.90;99.90;;;;;;5017861;28;20032;-66
2021/03/30 01:41:22;;;;;;;5.78;2.17;;;11.80;99.90;;;;;;5007724;28;20173;-66
2021/03/30 01:43:48;;;;;;;5.97;2.60;;;12.00;99.90;;;;;;5015813;28;20088;-66
2021/03/30 01:46:15;;;;;;;11.23;2.33;;;11.80;99.90;;;;;;5007753;28;20034;-66
2021/03/30 01:48:42;;;;;;;3.45;2.20;;;11.80;99.90;;;;;;5011193;28;20163;-66
2021/03/30 01:51:10;;;;;;;8.65;2.10;;;11.80;99.90;;;;;;5008275;28;20018;-66
2021/03/30 01:53:37;;;;;;;5.70;2.13;;;11.90;99.90;;;;;;5005650;28;20042;-66
2021/03/30 01:56:05;;;;;;;5.40;2.55;;;11.70;99.90;;;;;;4996149;28;20112;-66
2021/03/30 01:58:32;;;;;;;7.60;2.97;;;11.60;99.90;;;;;;5002737;28;20156;-66
2021/03/30 02:00:59;;;;;;;3.80;2.65;;;11.80;99.90;;;;;;5003382;28;20030;-66
2021/03/30 02:03:26;;;;;;;7.13;2.53;;;11.70;99.90;;;;;;5003923;28;20030;-66
2021/03/30 02:05:56;;;;;;;4.35;2.95;;;11.70;99.90;;;;;;5002516;28;20050;-66
2021/03/30 02:08:23;;;;;;;5.63;3.00;;;11.60;99.90;;;;;;5002708;28;20025;-66
2021/03/30 02:10:52;;;;;;;7.28;2.65;;;11.80;99.90;;;;;;5002987;28;20413;-66
2021/03/30 02:13:42;;;;;;;4.78;2.72;;;11.60;99.90;;;;;;5000906;28;20084;-66
2021/03/30 02:16:15;;;;;;;6.43;2.65;;;11.70;99.90;;;;;;4999418;28;20055;-66
2021/03/30 02:18:45;;;;;;;4.50;2.60;;;11.60;99.90;;;;;;5002903;28;20022;-65
2021/03/30 02:21:18;;;;;;;4.10;2.67;;;11.50;99.90;;;;;;4997444;28;20044;-66
2021/03/30 02:23:45;;;;;;;7.70;2.97;;;11.50;99.90;;;;;;5002692;28;20499;-66
2021/03/30 02:26:13;;;;;;;3.65;2.95;;;11.50;99.90;;;;;;5002435;28;20804;-66
2021/03/30 02:31:12;;;;;;;8.45;2.70;;;11.40;99.90;;;;;;5002463;28;20048;-65
2021/03/30 02:33:39;;;;;;;5.43;3.28;;;11.40;99.90;;;;;;5002813;28;20061;-66
2021/03/30 02:36:05;;;;;;;6.90;3.10;;;11.40;99.90;;;;;;5001821;28;20021;-66
2021/03/30 02:38:33;;;;;;;5.30;3.10;;;11.30;99.90;;;;;;5001918;28;20387;-66
2021/03/30 02:40:59;;;;;;;6.43;2.80;;;11.50;99.90;;;;;;5002375;28;20546;-66
2021/03/30 02:43:27;;;;;;;4.25;2.67;;;11.30;99.90;;;;;;5001087;28;20025;-66
2021/03/30 02:45:54;;;;;;;7.90;3.13;;;11.30;99.90;;;;;;5002150;28;20718;-66
2021/03/30 02:48:20;;;;;;;4.93;3.20;;;11.30;99.90;;;;;;5000043;28;20033;-66
2021/03/30 02:50:48;;;;;;;6.78;2.58;;;11.30;99.90;;;;;;5001912;28;20137;-66
2021/03/30 02:53:14;;;;;;;8.25;3.25;;;11.20;99.90;;;;;;4998978;28;20490;-66
2021/03/30 02:55:41;;;;;;;4.97;3.05;;;11.30;99.90;;;;;;5010502;28;20543;-66
2021/03/30 02:58:08;;;;;;;3.97;3.03;;;11.20;99.90;;;;;;5017201;28;20255;-66
2021/03/30 03:00:35;;;;;;;6.28;2.92;;;11.20;99.90;;;;;;5013695;28;20026;-66
2021/03/30 03:03:03;;;;;;;6.85;3.03;;;11.30;99.90;;;;;;5016482;28;20087;-66
2021/03/30 03:05:29;;;;;;;8.00;2.88;;;11.30;99.90;;;;;;5014042;28;20050;-66
2021/03/30 03:07:55;;;;;;;6.25;2.63;;;11.30;99.90;;;;;;5019443;28;20032;-66
2021/03/30 03:10:21;;;;;;;7.13;3.03;;;11.30;99.90;;;;;;5017012;28;20112;-66
2021/03/30 03:12:47;;;;;;;6.18;2.80;;;11.30;99.90;;;;;;5015743;28;20034;-66
2021/03/30 03:15:15;;;;;;;6.05;2.70;;;11.30;99.90;;;;;;5019149;28;20026;-66
2021/03/30 03:17:42;;;;;;;4.15;2.60;;;11.20;99.90;;;;;;5012287;28;20018;-66
2021/03/30 03:20:10;;;;;;;9.63;3.22;;;11.40;99.90;;;;;;5020341;28;20037;-66
2021/03/30 03:22:37;;;;;;;4.85;2.70;;;11.30;99.90;;;;;;5009945;28;20053;-66
2021/03/30 03:25:05;;;;;;;3.92;2.63;;;11.30;99.90;;;;;;5020567;28;20026;-65
2021/03/30 03:27:32;;;;;;;7.97;2.97;;;11.20;99.90;;;;;;5008771;28;20132;-65
2021/03/30 03:29:58;;;;;;;3.80;2.75;;;11.30;99.90;;;;;;5036412;28;20502;-66
2021/03/30 03:32:24;;;;;;;9.70;3.40;;;11.30;99.90;;;;;;5008218;28;20124;-66
2021/03/30 03:34:50;;;;;;;7.95;3.28;;;11.20;99.90;;;;;;5023294;28;20030;-66
2021/03/30 03:37:16;;;;;;;5.10;3.22;;;11.10;99.90;;;;;;5008748;28;20033;-66
2021/03/30 03:39:41;;;;;;;4.57;3.03;;;11.20;99.90;;;;;;5021653;28;20021;-66
2021/03/30 03:42:07;;;;;;;7.55;3.20;;;11.20;99.90;;;;;;5006036;28;20018;-66
2021/03/30 03:44:33;;;;;;;6.43;2.65;;;11.20;99.90;;;;;;5021694;28;20018;-65
2021/03/30 03:46:59;;;;;;;5.60;3.10;;;11.20;99.90;;;;;;5002480;28;20036;-65
2021/03/30 03:49:25;;;;;;;3.60;2.72;;;11.20;99.90;;;;;;5021295;28;20192;-66
2021/03/30 03:52:24;;;;;;;3.78;2.92;;;11.10;99.90;;;;;;5002192;28;20565;-66
2021/03/30 03:54:53;;;;;;;4.50;2.80;;;11.30;99.90;;;;;;4989364;28;22415;-66
2021/03/30 03:57:22;;;;;;;4.20;3.03;;;11.10;99.90;;;;;;5002678;28;20177;-66
2021/03/30 03:59:50;;;;;;;4.72;2.97;;;11.30;99.90;;;;;;5009117;28;20030;-65
2021/03/30 04:02:43;;;;;;;5.90;2.90;;;11.10;99.90;;;;;;5001361;28;20519;-66
2021/03/30 04:05:12;;;;;;;5.47;3.00;;;11.20;99.90;;;;;;4994931;28;20113;-66
2021/03/30 04:08:01;;;;;;;7.20;2.83;;;11.20;99.90;;;;;;4999781;28;20042;-66
2021/03/30 04:10:28;;;;;;;6.25;3.55;;;11.10;99.90;;;;;;4993768;28;20026;-66
2021/03/30 04:12:54;;;;;;;4.72;3.30;;;11.20;99.90;;;;;;5000455;28;20030;-66
2021/03/30 04:15:21;;;;;;;9.32;3.60;;;11.10;99.90;;;;;;5005419;28;20027;-66
2021/03/30 04:17:48;;;;;;;7.47;3.30;;;11.10;99.90;;;;;;5000323;28;20502;-66
2021/03/30 04:20:15;;;;;;;4.95;3.45;;;11.10;99.90;;;;;;5003976;28;20062;-66
2021/03/30 04:22:49;;;;;;;4.43;3.10;;;11.00;99.90;;;;;;4999537;28;20018;-66
2021/03/30 04:25:15;;;;;;;6.95;3.20;;;11.10;99.90;;;;;;5004727;28;20112;-65
2021/03/30 04:27:41;;;;;;;4.65;3.13;;;11.00;99.90;;;;;;5011826;28;20041;-66
2021/03/30 04:30:07;;;;;;;4.18;3.47;;;11.00;99.90;;;;;;5025544;28;20026;-66
2021/03/30 04:32:33;;;;;;;8.05;4.03;;;10.90;99.90;;;;;;5014793;28;20028;-66
2021/03/30 04:34:59;;;;;;;4.95;3.28;;;11.00;99.90;;;;;;5025041;28;20026;-66
2021/03/30 04:37:25;;;;;;;9.88;4.32;;;10.90;99.90;;;;;;5009083;28;20026;-66
2021/03/30 04:39:50;;;;;;;4.20;3.80;;;11.00;99.90;;;;;;5023607;28;20108;-66
2021/03/30 04:42:16;;;;;;;8.57;3.40;;;11.00;99.90;;;;;;5008458;28;20025;-66
2021/03/30 04:44:41;;;;;;;6.85;3.63;;;10.80;99.90;;;;;;5024633;28;20402;-66
2021/03/30 04:47:07;;;;;;;6.55;3.33;;;10.90;99.90;;;;;;5005489;28;20387;-66
2021/03/30 04:49:33;;;;;;;8.63;3.47;;;10.90;99.90;;;;;;5021229;28;20498;-66
2021/03/30 04:51:59;;;;;;;8.38;3.58;;;10.80;99.90;;;;;;5001709;28;20083;-66
2021/03/30 04:54:24;;;;;;;5.57;3.30;;;11.00;99.90;;;;;;5019945;28;20490;-66
2021/03/30 04:56:51;;;;;;;6.43;3.53;;;10.90;99.90;;;;;;5001492;28;20030;-65
2021/03/30 04:59:17;;;;;;;7.95;3.85;;;11.00;99.90;;;;;;5030349;28;20021;-65
2021/03/30 05:01:42;;;;;;;8.43;4.45;;;10.80;99.90;;;;;;5012937;28;20485;-66
2021/03/30 05:04:08;;;;;;;7.18;3.83;;;10.80;99.90;;;;;;5027972;28;20021;-66
2021/03/30 05:06:34;;;;;;;7.00;4.15;;;10.80;99.90;;;;;;5011141;28;20041;-67
2021/03/30 05:08:59;;;;;;;7.10;3.63;;;10.80;99.90;;;;;;5024461;28;20025;-67
2021/03/30 05:11:25;;;;;;;5.88;3.85;;;10.80;99.90;;;;;;5011700;28;20036;-67
2021/03/30 05:13:51;;;;;;;4.07;3.65;;;10.70;99.90;;;;;;5021154;28;20091;-67
2021/03/30 05:16:16;;;;;;;8.85;3.60;;;10.80;99.90;;;;;;5011137;28;20088;-67
2021/03/30 05:18:43;;;;;;;7.43;4.20;;;11.00;99.90;;;;;;5004884;28;20024;-67
2021/03/30 05:21:09;;;;;;;5.05;3.50;;;10.90;99.90;;;;;;5002793;28;20033;-67
2021/03/30 05:23:34;;;;;;;6.05;3.83;;;10.90;99.90;;;;;;4998465;28;20026;-66
2021/03/30 05:26:00;;;;;;;7.32;3.60;;;10.90;99.90;;;;;;5001312;28;20042;-67
2021/03/30 05:28:26;;;;;;;8.68;3.60;;;10.90;99.90;;;;;;5004475;28;20025;-67
2021/03/30 05:30:53;;;;;;;7.15;4.05;;;10.80;99.90;;;;;;5003125;28;20068;-66
2021/03/30 05:33:19;;;;;;;5.60;4.00;;;11.00;99.90;;;;;;5003781;28;20033;-66
2021/03/30 05:35:44;;;;;;;8.20;3.40;;;10.90;99.90;;;;;;5002518;28;20403;-66
2021/03/30 05:38:11;;;;;;;6.85;3.78;;;10.90;99.90;;;;;;5002340;28;20025;-66
2021/03/30 05:40:36;;;;;;;6.50;4.05;;;10.90;99.90;;;;;;5003410;28;20053;-66
2021/03/30 05:43:02;;;;;;;7.65;3.78;;;10.80;99.90;;;;;;5004887;28;20088;-66
2021/03/30 05:45:28;;;;;;;6.32;4.03;;;10.90;99.90;;;;;;5005849;28;20030;-66
2021/03/30 05:47:56;;;;;;;5.18;3.85;;;11.00;99.90;;;;;;4992739;28;20101;-66
2021/03/30 05:50:23;;;;;;;3.45;3.15;;;10.90;99.90;;;;;;5006216;28;20053;-66
2021/03/30 05:53:05;;;;;;;6.07;3.70;;;10.90;99.90;;;;;;5002102;28;20083;-66
2021/03/30 05:55:33;;;;;;;6.25;3.60;;;10.80;99.90;;;;;;5002964;28;20049;-66
2021/03/30 05:58:00;;;;;;;8.32;3.80;;;10.80;99.90;;;;;;5006570;28;20025;-66
2021/03/30 06:00:51;;;;;;;7.82;3.65;;;10.90;99.90;;;;;;4993662;28;20088;-66
2021/03/30 06:03:23;;;;;;;12.38;4.20;;;11.00;99.90;;;;;;5007430;28;20030;-66
2021/03/30 06:05:59;;;;;;;8.75;4.15;;;10.90;99.90;;;;;;5002188;28;20148;-66
2021/03/30 06:08:26;;;;;;;;;;;11.00;99.90;;;;;;5004815;28;20033;-66
2021/03/30 06:10:53;;;;;;;5.10;3.58;;;11.00;99.90;;;;;;5002900;28;20405;-66
2021/03/30 06:13:45;;;;;;;12.00;3.80;;;11.00;99.90;;;;;;5001237;28;20026;-66
2021/03/30 06:16:26;;;;;;;5.78;4.10;;;11.00;99.90;;;;;;5002800;28;20140;-66
2021/03/30 06:19:05;;;;;;;8.15;4.07;;;11.10;99.90;;;;;;5000763;28;20014;-66
2021/03/30 06:21:34;;;;;;;10.68;3.88;;;11.00;99.90;;;;;;5002156;28;20116;-66
2021/03/30 06:23:59;;;;;;;11.60;3.90;;;11.00;99.90;;;;;;4999626;28;20018;-66
2021/03/30 06:26:27;;;;;;;6.53;3.85;;;11.10;99.90;;;;;;5013448;28;20406;-67
2021/03/30 06:28:53;;;;;;;10.73;4.15;;;11.00;99.90;;;;;;5014499;28;20485;-64
2021/03/30 06:31:20;;;;;;;8.32;4.22;;;11.00;99.90;;;;;;5011757;28;20033;-65
2021/03/30 06:33:56;;;;;;;5.65;3.70;;;11.10;99.90;;;;;;5016726;28;20156;-65
2021/03/30 06:36:31;;;;;;;12.65;3.97;;;11.10;99.90;;;;;;5007961;28;20545;-65
2021/03/30 06:39:02;;;;;;;5.25;3.67;;;11.30;99.90;;;;;;5018749;28;20125;-65
2021/03/30 06:41:38;;;;;;;6.88;3.80;;;11.30;99.90;;;;;;5008828;28;20034;-65
2021/03/30 06:44:27;;;;;;;8.45;3.83;;;11.30;99.90;;;;;;5019094;28;20029;-65
2021/03/30 06:47:02;;;;;;;6.72;3.70;;;11.50;99.90;;;;;;5005830;28;20103;-65
2021/03/30 06:49:30;;;;;;;8.63;4.03;;;11.40;99.90;;;;;;5020936;28;20031;-65
2021/03/30 06:51:58;;;;;;;10.68;4.18;;;11.40;99.90;;;;;;5006022;28;20032;-65
2021/03/30 06:54:24;;;;;;;6.28;3.60;;;11.60;99.90;;;;;;5019688;28;20021;-65
2021/03/30 06:56:58;;;;;;;6.95;3.33;;;11.50;99.90;;;;;;5004967;28;20041;-65
2021/03/30 06:59:25;;;;;;;6.28;3.75;;;11.70;99.90;;;;;;5018673;28;20040;-65
2021/03/30 07:01:53;;;;;;;10.38;4.22;;;11.70;99.90;;;;;;4999897;28;20089;-65
2021/03/30 07:04:19;;;;;;;7.68;3.65;;;11.70;99.90;;;;;;5017364;28;20013;-64
2021/03/30 07:06:54;;;;;;;7.07;4.10;;;11.80;99.90;;;;;;5002867;28;20046;-65
2021/03/30 07:09:21;;;;;;;11.50;4.30;;;11.80;99.90;;;;;;5019756;28;20033;-65
2021/03/30 07:11:48;;;;;;;7.28;4.13;;;11.80;99.90;;;;;;5014161;28;20108;-65
2021/03/30 07:14:14;;;;;;;6.28;3.92;;;11.80;99.90;;;;;;5030978;28;20022;-64
2021/03/30 07:16:51;;;;;;;8.30;4.13;;;11.90;99.90;;;;;;5014096;28;20040;-65
2021/03/30 07:19:22;;;;;;;12.35;4.47;;;12.00;99.90;;;;;;5030404;28;20034;-65
2021/03/30 07:22:02;;;;;;;7.97;4.28;;;12.00;99.90;;;;;;5009980;28;20130;-66
2021/03/30 07:24:50;;;;;;;9.18;4.22;;;12.10;99.90;;;;;;5011676;28;20014;-65
2021/03/30 07:27:31;;;;;;;4.20;3.80;;;12.30;99.90;;;;;;5004258;28;20046;-65
2021/03/30 07:29:59;;;;;;;7.05;3.65;;;12.30;99.90;;;;;;5007622;28;20387;-67
2021/03/30 07:32:29;;;;;;;6.95;3.67;;;12.40;99.90;;;;;;4996587;28;20081;-66
2021/03/30 07:35:14;;;;;;;6.80;4.07;;;12.50;99.90;;;;;;5010057;28;20388;-66
2021/03/30 07:37:49;;;;;;;12.18;4.43;;;12.50;99.90;;;;;;4995497;28;20025;-66
2021/03/30 07:40:18;;;;;;;7.57;4.00;;;12.60;99.90;;;;;;5008833;28;20049;-66
2021/03/30 07:42:46;;;;;;;7.80;3.65;;;12.70;99.90;;;;;;5003627;28;20014;-66
2021/03/30 07:45:14;;;;;;;8.98;4.07;;;12.80;99.90;;;;;;5009253;28;20034;-66
2021/03/30 07:47:41;;;;;;;6.75;3.35;;;12.90;99.90;;;;;;5001796;28;20038;-66
2021/03/30 07:50:11;;;;;;;5.60;3.40;;;12.90;99.90;;;;;;5009773;28;20025;-66
2021/03/30 07:52:47;;;;;;;7.47;3.40;;;13.00;99.90;;;;;;5000562;28;20479;-66
2021/03/30 07:55:25;;;;;;;5.93;3.70;;;13.20;99.90;;;;;;5005002;28;20042;-66
2021/03/30 07:58:13;;;;;;;4.63;3.40;;;13.30;99.90;;;;;;4997067;28;20022;-67
2021/03/30 08:00:38;;;;;;;5.65;3.65;;;13.50;99.90;;;;;;5004943;28;20121;-67
2021/03/30 08:03:10;;;;;;;9.65;3.95;;;13.40;99.90;;;;;;4997076;28;20544;-67
2021/03/30 08:05:37;;;;;;;7.93;2.95;;;13.40;99.90;;;;;;5004689;28;20081;-67
2021/03/30 08:08:19;;;;;;;6.82;3.35;;;13.60;99.90;;;;;;5004197;28;20057;-66
2021/03/30 08:10:46;;;;;;;6.57;3.03;;;13.80;99.90;;;;;;5005359;28;20034;-66
2021/03/30 08:13:27;;;;;;;7.60;2.72;;;13.80;99.90;;;;;;5009343;28;20021;-66
2021/03/30 08:15:57;;;;;;;6.45;3.40;;;13.90;99.90;;;;;;4998955;28;20084;-66
2021/03/30 08:18:24;;;;;;;12.40;3.13;;;14.00;99.90;;;;;;5002124;28;20044;-67
2021/03/30 08:21:17;;;;;;;4.53;3.08;;;14.10;99.90;;;;;;4995543;28;20058;-66
2021/03/30 08:23:52;;;;;;;5.75;3.47;;;14.20;99.90;;;;;;5005740;28;20511;-65
2021/03/30 08:26:20;;;;;;;4.85;3.13;;;14.30;99.90;;;;;;5004375;28;20113;-65
2021/03/30 08:28:55;;;;;;;7.45;2.80;;;14.30;99.90;;;;;;5002649;28;20021;-65
2021/03/30 08:31:23;;;;;;;14.93;3.17;;;14.50;99.90;;;;;;5008221;28;20030;-66
2021/03/30 08:33:50;;;;;;;7.82;3.30;;;14.50;99.90;;;;;;5003474;28;20022;-66
2021/03/30 08:36:23;;;;;;;14.00;3.03;;;14.60;99.90;;;;;;4999641;28;20042;-66
2021/03/30 08:38:52;;;;;;;8.85;3.03;;;14.70;99.90;;;;;;5022816;28;20022;-66
2021/03/30 08:41:42;;;;;;;10.02;2.95;;;14.80;99.90;;;;;;5013868;28;20030;-66
2021/03/30 08:44:17;;;;;;;7.72;3.58;;;14.90;99.90;;;;;;5023816;28;20022;-65
2021/03/30 08:46:45;;;;;;;6.45;3.30;;;15.00;99.90;;;;;;5008398;28;20034;-66
2021/03/30 08:49:40;;;;;;;11.60;3.22;;;15.00;99.90;;;;;;5008841;28;20026;-66
2021/03/30 08:52:15;;;;;;;6.80;3.40;;;15.10;99.90;;;;;;5019966;28;20030;-66
2021/03/30 08:54:55;;;;;;;9.38;3.60;;;15.30;99.90;;;;;;5009185;28;20037;-67
2021/03/30 08:57:22;;;;;;;3.53;2.85;;;15.10;99.90;;;;;;5007550;28;20506;-67
2021/03/30 08:59:48;;;;;;;9.55;3.40;;;15.30;99.90;;;;;;5004881;28;20018;-67
2021/03/30 09:02:22;;;;;;;6.47;3.13;;;15.30;99.90;;;;;;5003235;28;20105;-67
2021/03/30 09:04:47;;;;;;;14.82;3.00;;;15.30;99.90;;;;;;5024667;28;20044;-66
2021/03/30 09:07:13;;;;;;;8.27;2.80;;;15.40;99.90;;;;;;5000894;28;20510;-66
2021/03/30 09:09:39;;;;;;;5.93;3.15;;;15.40;99.90;;;;;;5009021;28;20073;-66
2021/03/30 09:12:18;;;;;;;11.15;3.10;;;15.50;99.90;;;;;;5002858;28;20506;-67
2021/03/30 09:14:58;;;;;;;7.88;3.30;;;15.90;99.90;;;;;;5009042;28;20495;-67
2021/03/30 09:17:24;;;;;;;5.22;2.40;;;15.70;99.90;;;;;;4998528;28;20041;-67
2021/03/30 09:19:51;;;;;;;4.63;2.67;;;15.70;99.90;;;;;;5008477;28;20131;-67
2021/03/30 09:22:37;;;;;;;6.15;2.60;;;16.00;99.90;;;;;;5005463;28;20034;-67
2021/03/30 09:27:46;;;;;;;12.73;3.60;;;16.30;99.90;;;;;;4996464;28;20061;-67
2021/03/30 09:30:22;;;;;;;8.27;3.13;;;16.10;99.90;;;;;;5007602;28;20479;-67
2021/03/30 09:32:50;;;;;;;10.13;3.17;;;16.50;99.90;;;;;;4995836;28;20491;-67
2021/03/30 09:35:20;;;;;;;6.00;3.00;;;16.50;99.90;;;;;;5006150;28;20037;-66
2021/03/30 09:37:49;;;;;;;6.57;3.10;;;16.80;99.90;;;;;;5000698;28;20033;-67
2021/03/30 09:40:18;;;;;;;4.80;2.70;;;16.70;99.90;;;;;;5005137;28;20022;-67
2021/03/30 09:42:45;;;;;;;5.88;2.70;;;16.90;99.90;;;;;;5013076;28;20552;-67
2021/03/30 09:45:19;;;;;;;9.48;2.80;;;17.20;99.90;;;;;;5001694;28;20097;-66
2021/03/30 09:47:45;;;;;;;5.78;3.00;;;17.10;99.90;;;;;;5005601;28;20521;-66
2021/03/30 09:50:12;;;;;;;6.57;2.83;;;17.20;99.90;;;;;;5007207;28;20124;-66
2021/03/30 09:52:38;;;;;;;11.75;3.33;;;17.40;99.90;;;;;;4994030;28;20363;-67
2021/03/30 09:55:06;;;;;;;7.97;2.78;;;17.70;99.90;;;;;;5007398;28;20127;-67
2021/03/30 09:57:33;;;;;;;4.57;2.15;;;17.60;99.90;;;;;;4997904;28;20022;-67
2021/03/30 10:00:00;;;;;;;5.60;2.72;;;17.10;99.90;;;;;;5006538;28;20022;-66
2021/03/30 10:02:34;;;;;;;5.57;2.65;;;17.10;99.90;;;;;;4999743;28;20041;-66
2021/03/30 10:05:02;;;;;;;6.00;2.70;;;17.20;99.90;;;;;;5007222;28;20096;-67
2021/03/30 10:07:39;;;;;;;10.65;3.03;;;17.30;99.90;;;;;;4998298;28;20574;-66
2021/03/30 10:10:13;;;;;;;11.25;2.92;;;17.50;99.90;;;;;;5005864;28;20026;-67
2021/03/30 10:12:57;;;;;;;7.75;2.53;;;17.70;99.90;;;;;;5005005;28;20025;-66
2021/03/30 10:15:30;;;;;;;6.18;2.72;;;17.70;99.90;;;;;;4998814;28;20041;-66
2021/03/30 10:17:56;;;;;;;6.57;2.72;;;18.40;99.90;;;;;;5009222;28;20060;-66
2021/03/30 10:20:22;;;;;;;4.85;2.53;;;18.30;99.90;;;;;;5005530;28;20034;-65
2021/03/30 10:22:49;;;;;;;18.35;2.88;;;18.50;99.90;;;;;;5001721;28;20494;-67
2021/03/30 10:25:17;;;;;;;10.65;2.80;;;18.40;99.90;;;;;;4990677;28;20022;-67
2021/03/30 10:27:58;;;;;;;7.35;2.75;;;18.30;99.90;;;;;;4989476;28;20450;-67
2021/03/30 10:30:39;;;;;;;7.22;2.90;;;18.40;99.90;;;;;;4998924;28;20506;-67
2021/03/30 10:33:11;;;;;;;3.65;2.30;;;19.00;99.90;;;;;;4990337;28;20030;-67
2021/03/30 10:35:38;;;;;;;9.27;2.30;;;18.90;99.90;;;;;;4993515;28;20113;-67
2021/03/30 10:38:03;;;;;;;6.45;2.60;;;18.70;99.90;;;;;;5000892;28;20566;-66
2021/03/30 10:40:34;;;;;;;11.13;2.35;;;18.70;99.90;;;;;;5008100;28;20118;-67
2021/03/30 10:43:20;;;;;;;9.60;2.95;;;19.10;99.90;;;;;;5004066;28;20030;-66
2021/03/30 10:45:46;;;;;;;9.32;2.78;;;18.70;99.90;;;;;;5006633;28;20072;-67
2021/03/30 10:48:12;;;;;;;9.18;2.50;;;18.70;99.90;;;;;;5003631;28;20462;-67
2021/03/30 10:50:38;;;;;;;8.73;2.50;;;18.90;99.90;;;;;;5006539;28;20758;-67
2021/03/30 10:53:03;;;;;;;5.97;2.67;;;18.70;99.90;;;;;;5002455;28;20503;-67
2021/03/30 10:55:30;;;;;;;6.15;2.63;;;18.80;99.90;;;;;;5007824;28;20586;-67
2021/03/30 10:57:55;;;;;;;10.48;3.20;;;18.80;99.90;;;;;;5001582;28;20471;-67
2021/03/30 11:00:21;;;;;;;9.32;2.60;;;19.20;99.90;;;;;;5006792;28;20118;-67
2021/03/30 11:02:47;;;;;;;9.02;2.70;;;19.30;99.90;;;;;;5001805;28;20033;-67
2021/03/30 11:05:15;;;;;;;7.85;2.83;;;19.00;99.90;;;;;;5014761;28;20541;-68
2021/03/30 11:07:41;;;;;;;7.65;2.53;;;19.00;99.90;;;;;;5010395;28;20113;-67
2021/03/30 11:10:08;;;;;;;8.50;2.72;;;19.30;99.90;;;;;;5026560;28;20460;-67
2021/03/30 11:12:35;;;;;;;4.35;2.55;;;19.20;99.90;;;;;;5018830;28;20108;-67
2021/03/30 11:15:02;;;;;;;18.85;3.10;;;19.60;99.90;;;;;;5027557;28;20026;-68
2021/03/30 11:17:27;;;;;;;14.10;2.60;;;19.80;99.90;;;;;;5015871;28;20048;-67
2021/03/30 11:19:53;;;;;;;13.30;3.00;;;20.00;99.90;;;;;;5019322;28;20057;-67
2021/03/30 11:22:19;;;;;;;7.63;2.67;;;20.10;99.90;;;;;;5011694;28;20068;-67
2021/03/30 11:24:44;;;;;;;8.63;2.33;;;20.10;99.90;;;;;;5010888;28;20027;-67
2021/03/30 11:27:10;;;;;;;10.00;2.60;;;19.80;99.90;;;;;;5003217;28;20069;-67
2021/03/30 11:34:43;;;;;;;5.82;2.45;;;19.90;99.90;;;;;;4995818;28;20036;-67
2021/03/30 11:39:55;;;;;;;15.88;3.40;;;20.30;99.90;;;;;;5005185;28;20034;-66
2021/03/30 11:42:22;;;;;;;18.58;4.28;;;20.70;99.70;;;;;;5005038;28;20554;-67
2021/03/30 11:44:48;;;;;;;34.17;5.95;;;20.20;99.90;;;;;;5008826;28;20017;-66
2021/03/30 11:47:14;;;;;;;22.83;4.50;;;20.70;99.90;;;;;;5003989;28;20038;-66
2021/03/30 11:49:40;;;;;;;10.88;2.42;;;20.90;99.90;;;;;;5010465;28;20018;-66
2021/03/30 11:52:06;;;;;;;10.35;2.95;;;20.80;99.90;;;;;;5004441;28;20101;-67
2021/03/30 11:54:33;;;;;;;14.48;3.22;;;20.80;99.70;;;;;;5012039;28;20723;-67
2021/03/30 11:56:59;;;;;;;14.43;2.58;;;21.00;99.90;;;;;;5005473;28;20113;-67
2021/03/30 11:59:26;;;;;;;12.45;2.70;;;21.10;99.90;;;;;;5011469;28;20029;-67
2021/03/30 12:01:52;;;;;;;7.30;2.38;;;21.60;99.90;;;;;;5004908;28;20466;-67
2021/03/30 12:04:18;;;;;;;7.60;2.38;;;20.60;99.70;;;;;;5009733;28;20014;-66
2021/03/30 12:06:44;;;;;;;7.30;2.38;;;20.40;99.90;;;;;;5013807;28;20056;-66
2021/03/30 12:09:09;;;;;;;5.97;2.70;;;20.80;99.80;;;;;;5011740;28;20017;-67
2021/03/30 12:11:35;;;;;;;14.65;2.90;;;21.00;99.40;;;;;;5003848;28;20037;-64
2021/03/30 12:14:01;;;;;;;7.47;2.70;;;21.00;99.90;;;;;;5007997;28;20021;-64
2021/03/30 12:16:28;;;;;;;6.35;2.70;;;21.70;99.80;;;;;;5012238;28;20034;-64
2021/03/30 12:18:54;;;;;;;18.70;2.97;;;21.40;99.20;;;;;;5018546;28;20092;-63
2021/03/30 12:21:23;;;;;;;11.05;2.60;;;21.90;99.40;;;;;;5014621;28;20434;-64
2021/03/30 12:23:49;;;;;;;10.80;3.22;;;22.50;99.00;;;;;;5017516;28;20030;-63
2021/03/30 12:26:15;;;;;;;13.30;3.22;;;22.30;98.90;;;;;;5019066;28;20049;-64
2021/03/30 12:28:41;;;;;;;11.60;2.95;;;21.90;99.20;;;;;;5014668;28;20018;-64
2021/03/30 12:31:06;;;;;;;8.30;2.58;;;22.50;98.90;;;;;;5004259;28;20601;-64
2021/03/30 12:33:32;;;;;;;8.65;2.70;;;22.90;98.90;;;;;;5008447;28;20543;-64
2021/03/30 12:35:58;;;;;;;15.80;3.45;;;22.60;98.80;;;;;;5003331;28;20092;-64
2021/03/30 12:38:24;;;;;;;11.13;3.10;;;22.40;98.90;;;;;;5003006;28;20034;-64
2021/03/30 12:40:50;;;;;;;9.07;2.80;;;22.50;99.10;;;;;;5006218;28;20038;-64
2021/03/30 12:43:16;;;;;;;10.13;2.95;;;22.50;98.90;;;;;;5014590;28;20095;-64
2021/03/30 12:45:42;;;;;;;11.65;3.53;;;22.20;99.10;;;;;;5015918;28;20048;-64
2021/03/30 12:48:10;;;;;;;9.68;3.15;;;22.30;98.90;;;;;;5011386;28;20041;-64
2021/03/30 12:50:36;;;;;;;15.45;2.95;;;22.80;97.80;;;;;;5016816;28;20036;-64
2021/03/30 12:53:03;;;;;;;16.95;3.20;;;22.40;98.70;;;;;;5022120;28;20032;-64
2021/03/30 12:55:29;;;;;;;9.23;3.20;;;22.00;98.50;;;;;;5019423;28;20057;-64
2021/03/30 12:57:55;;;;;;;5.00;2.30;;;22.20;97.90;;;;;;5015648;28;20021;-64
2021/03/30 13:00:21;;;;;;;9.75;2.70;;;22.10;97.90;;;;;;5010244;28;20030;-64
2021/03/30 13:02:48;;;;;;;12.75;2.97;;;22.10;98.40;;;;;;5014430;28;20479;-65
2021/03/30 13:05:14;;;;;;;7.00;2.58;;;21.90;97.80;;;;;;5023339;28;20542;-64
2021/03/30 13:07:39;;;;;;;5.20;2.33;;;22.00;97.90;;;;;;5011428;28;20065;-65
2021/03/30 13:10:06;;;;;;;8.15;2.63;;;22.10;97.60;;;;;;5023569;28;20044;-64